createdAt,value
2018-12-07T06:58:15.358Z,1004.53
2018-12-07T06:59:16.121Z,1004.49
2018-12-07T07:00:15.410Z,1004.46
2018-12-07T07:01:15.404Z,1004.45
2018-12-07T07:02:15.362Z,1004.46
2018-12-07T07:03:15.355Z,1004.39
2018-12-07T07:04:15.382Z,1004.45
2018-12-07T07:05:15.477Z,1004.40
2018-12-07T07:06:15.496Z,1004.44
2018-12-07T07:07:15.383Z,1004.50
2018-12-07T07:08:15.437Z,1004.52
2018-12-07T07:09:15.505Z,1004.52
2018-12-07T07:10:15.399Z,1004.50
2018-12-07T07:11:15.459Z,1004.45
2018-12-07T07:12:15.405Z,1004.46
2018-12-07T07:13:15.459Z,1004.43
2018-12-07T07:14:15.454Z,1004.46
2018-12-07T07:15:15.448Z,1004.48
2018-12-07T07:16:22.902Z,1004.47
2018-12-07T07:17:15.437Z,1004.47
2018-12-07T07:18:15.460Z,1004.49
2018-12-07T07:19:15.513Z,1004.48
2018-12-07T07:20:15.512Z,1004.51
2018-12-07T07:21:15.641Z,1004.48
2018-12-07T07:22:15.736Z,1004.50
2018-12-07T07:23:15.502Z,1004.48
2018-12-07T07:24:15.493Z,1004.51
2018-12-07T07:25:15.515Z,1004.49
2018-12-07T07:26:15.510Z,1004.52
2018-12-07T07:27:15.520Z,1004.55
2018-12-07T07:28:15.524Z,1004.55
2018-12-07T07:29:15.560Z,1004.58
2018-12-07T07:30:15.524Z,1004.54
2018-12-07T07:31:15.636Z,1004.55
2018-12-07T07:32:15.570Z,1004.54
2018-12-07T07:33:15.745Z,1004.56
2018-12-07T07:34:15.686Z,1004.54
2018-12-07T07:35:15.577Z,1004.51
2018-12-07T07:36:15.575Z,1004.51
2018-12-07T07:37:15.599Z,1004.53
2018-12-07T07:38:15.606Z,1004.55
2018-12-07T07:39:16.611Z,1004.55
2018-12-07T07:40:15.698Z,1004.49
2018-12-07T07:41:15.612Z,1004.48
2018-12-07T07:42:15.614Z,1004.46
2018-12-07T07:43:15.712Z,1004.49
2018-12-07T07:44:15.788Z,1004.50
2018-12-07T07:45:16.009Z,1004.46
2018-12-07T07:46:15.696Z,1004.46
2018-12-07T07:47:15.686Z,1004.46
2018-12-07T07:48:15.667Z,1004.43
2018-12-07T07:49:15.672Z,1004.41
2018-12-07T07:50:15.684Z,1004.42
2018-12-07T07:51:15.731Z,1004.41
2018-12-07T07:52:15.703Z,1004.40
2018-12-07T07:53:15.729Z,1004.35
2018-12-07T07:54:15.733Z,1004.32
2018-12-07T07:55:15.779Z,1004.30
2018-12-07T07:56:15.806Z,1004.32
2018-12-07T07:57:16.290Z,1004.25
2018-12-07T07:58:15.743Z,1004.30
2018-12-07T07:59:15.807Z,1004.25
2018-12-07T08:00:16.622Z,1004.19
2018-12-07T08:01:15.755Z,1004.23
2018-12-07T08:02:16.134Z,1004.19
2018-12-07T08:03:15.797Z,1004.17
2018-12-07T08:04:15.823Z,1004.21
2018-12-07T08:05:15.780Z,1004.19
2018-12-07T08:06:15.866Z,1004.17
2018-12-07T08:07:15.846Z,1004.10
2018-12-07T08:08:15.843Z,1004.12
2018-12-07T08:09:15.815Z,1004.08
2018-12-07T08:10:15.891Z,1004.04
2018-12-07T08:11:15.871Z,1004.03
2018-12-07T08:12:15.862Z,1004.06
2018-12-07T08:13:15.882Z,1003.99
2018-12-07T08:14:15.895Z,1004.01
2018-12-07T08:15:15.858Z,1003.99
2018-12-07T08:16:15.863Z,1003.99
2018-12-07T08:17:15.889Z,1003.98
2018-12-07T08:18:15.917Z,1004.01
2018-12-07T08:19:15.923Z,1003.97
2018-12-07T08:20:15.927Z,1003.98
2018-12-07T08:21:15.926Z,1003.98
2018-12-07T08:22:15.963Z,1003.94
2018-12-07T08:23:15.954Z,1003.93
2018-12-07T08:24:16.050Z,1003.90
2018-12-07T08:25:15.945Z,1003.92
2018-12-07T08:26:15.934Z,1003.90
2018-12-07T08:27:16.602Z,1003.92
2018-12-07T08:28:16.006Z,1003.91
2018-12-07T08:29:15.988Z,1003.95
2018-12-07T08:30:16.002Z,1003.93
2018-12-07T08:31:15.970Z,1003.89
2018-12-07T08:32:16.014Z,1003.86
2018-12-07T08:33:16.104Z,1003.91
2018-12-07T08:34:16.019Z,1003.89
2018-12-07T08:35:16.025Z,1003.89
2018-12-07T08:36:16.028Z,1003.88
2018-12-07T08:37:16.030Z,1003.88
2018-12-07T08:38:16.098Z,1003.86
2018-12-07T08:39:16.123Z,1003.88
2018-12-07T08:40:16.037Z,1003.89
2018-12-07T08:41:16.058Z,1003.88
2018-12-07T08:42:16.073Z,1003.86
2018-12-07T08:43:16.681Z,1003.86
2018-12-07T08:44:16.138Z,1003.91
2018-12-07T08:45:16.092Z,1003.90
2018-12-07T08:46:16.098Z,1003.90
2018-12-07T08:47:16.100Z,1003.88
2018-12-07T08:48:16.104Z,1003.85
2018-12-07T08:49:16.140Z,1003.86
2018-12-07T08:50:16.271Z,1003.86
2018-12-07T08:51:16.182Z,1003.84
2018-12-07T08:52:16.141Z,1003.88
2018-12-07T08:53:16.173Z,1003.85
2018-12-07T08:54:17.101Z,1003.80
2018-12-07T08:55:16.257Z,1003.80
2018-12-07T08:56:16.171Z,1003.76
2018-12-07T08:57:16.206Z,1003.79
2018-12-07T08:58:16.225Z,1003.76
2018-12-07T08:59:16.195Z,1003.77
2018-12-07T09:00:16.279Z,1003.78
2018-12-07T09:01:16.241Z,1003.76
2018-12-07T09:02:16.208Z,1003.71
2018-12-07T09:03:16.252Z,1003.73
2018-12-07T09:04:16.253Z,1003.71
2018-12-07T09:05:16.361Z,1003.71
2018-12-07T09:06:16.231Z,1003.75
2018-12-07T09:07:17.720Z,1003.74
2018-12-07T09:08:16.308Z,1003.71
2018-12-07T09:09:16.291Z,1003.74
2018-12-07T09:10:16.289Z,1003.73
2018-12-07T09:11:16.312Z,1003.68
2018-12-07T09:12:16.360Z,1003.68
2018-12-07T09:13:16.362Z,1003.66
2018-12-07T09:14:16.314Z,1003.66
2018-12-07T09:15:16.531Z,1003.64
2018-12-07T09:16:16.324Z,1003.63
2018-12-07T09:17:16.462Z,1003.63
2018-12-07T09:18:16.356Z,1003.61
2018-12-07T09:19:16.424Z,1003.64
2018-12-07T09:20:16.526Z,1003.61
2018-12-07T09:21:16.371Z,1003.60
2018-12-07T09:22:16.378Z,1003.53
2018-12-07T09:23:16.402Z,1003.59
2018-12-07T09:24:16.407Z,1003.53
2018-12-07T09:25:16.413Z,1003.46
2018-12-07T09:26:16.412Z,1003.46
2018-12-07T09:27:16.412Z,1003.49
2018-12-07T09:28:16.527Z,1003.47
2018-12-07T09:29:16.446Z,1003.45
2018-12-07T09:30:16.441Z,1003.42
2018-12-07T09:31:16.513Z,1003.46
2018-12-07T09:32:16.450Z,1003.43
2018-12-07T09:33:16.491Z,1003.38
2018-12-07T09:34:16.507Z,1003.35
2018-12-07T09:35:16.466Z,1003.37
2018-12-07T09:36:16.484Z,1003.35
2018-12-07T09:37:17.174Z,1003.34
2018-12-07T09:38:16.497Z,1003.30
2018-12-07T09:39:16.644Z,1003.31
2018-12-07T09:40:16.551Z,1003.33
2018-12-07T09:41:16.516Z,1003.29
2018-12-07T09:42:17.165Z,1003.29
2018-12-07T09:43:16.562Z,1003.28
2018-12-07T09:44:16.626Z,1003.28
2018-12-07T09:45:16.630Z,1003.23
2018-12-07T09:46:17.164Z,1003.23
2018-12-07T09:47:16.570Z,1003.24
2018-12-07T09:48:16.636Z,1003.22
2018-12-07T09:49:16.658Z,1003.23
2018-12-07T09:50:16.669Z,1003.21
2018-12-07T09:51:16.615Z,1003.22
2018-12-07T09:52:16.609Z,1003.15
2018-12-07T09:53:16.740Z,1003.10
2018-12-07T09:54:16.666Z,1003.10
2018-12-07T09:55:16.659Z,1003.03
2018-12-07T09:56:16.691Z,1003.03
2018-12-07T09:57:16.671Z,1003.04
2018-12-07T09:58:16.680Z,1003.05
2018-12-07T09:59:16.663Z,1003.03
2018-12-07T10:00:17.613Z,1002.98
2018-12-07T10:01:16.686Z,1002.99
2018-12-07T10:02:16.798Z,1002.96
2018-12-07T10:03:16.702Z,1002.94
2018-12-07T10:04:16.714Z,1002.92
2018-12-07T10:05:17.589Z,1002.94
2018-12-07T10:06:16.722Z,1002.93
2018-12-07T10:07:16.836Z,1002.92
2018-12-07T10:08:16.804Z,1002.84
2018-12-07T10:09:16.759Z,1002.86
2018-12-07T10:10:16.743Z,1002.83
2018-12-07T10:11:16.795Z,1002.84
2018-12-07T10:12:16.768Z,1002.80
2018-12-07T10:13:16.769Z,1002.78
2018-12-07T10:14:16.780Z,1002.78
2018-12-07T10:15:16.873Z,1002.74
2018-12-07T10:16:16.932Z,1002.71
2018-12-07T10:17:16.803Z,1002.73
2018-12-07T10:18:16.809Z,1002.72
2018-12-07T10:19:16.896Z,1002.69
2018-12-07T10:20:16.819Z,1002.64
2018-12-07T10:21:16.871Z,1002.62
2018-12-07T10:22:16.841Z,1002.60
2018-12-07T10:23:16.877Z,1002.58
2018-12-07T10:24:16.864Z,1002.55
2018-12-07T10:25:16.910Z,1002.55
2018-12-07T10:26:16.893Z,1002.49
2018-12-07T10:27:16.983Z,1002.46
2018-12-07T10:28:16.924Z,1002.42
2018-12-07T10:29:16.919Z,1002.37
2018-12-07T10:30:17.152Z,1002.41
2018-12-07T10:31:16.932Z,1002.38
2018-12-07T10:32:16.943Z,1002.34
2018-12-07T10:33:16.947Z,1002.33
2018-12-07T10:34:16.963Z,1002.31
2018-12-07T10:35:16.982Z,1002.30
2018-12-07T10:36:17.130Z,1002.30
2018-12-07T10:37:17.106Z,1002.30
2018-12-07T10:38:16.967Z,1002.27
2018-12-07T10:39:16.998Z,1002.30
2018-12-07T10:40:16.999Z,1002.27
2018-12-07T10:41:17.059Z,1002.25
2018-12-07T10:42:17.015Z,1002.27
2018-12-07T10:43:17.082Z,1002.25
2018-12-07T10:44:17.033Z,1002.22
2018-12-07T10:45:17.074Z,1002.20
2018-12-07T10:46:17.093Z,1002.17
2018-12-07T10:47:17.040Z,1002.13
2018-12-07T10:48:17.208Z,1002.14
2018-12-07T10:49:17.206Z,1002.12
2018-12-07T10:50:17.120Z,1002.10
2018-12-07T10:51:17.220Z,1002.08
2018-12-07T10:52:17.135Z,1002.06
2018-12-07T10:53:17.153Z,1001.99
2018-12-07T10:54:17.157Z,1001.98
2018-12-07T10:55:17.134Z,1002.00
2018-12-07T10:56:17.230Z,1001.98
2018-12-07T10:57:17.147Z,1001.94
2018-12-07T10:58:17.154Z,1001.91
2018-12-07T10:59:17.188Z,1001.90
2018-12-07T11:00:22.698Z,1001.91
2018-12-07T11:01:17.172Z,1001.85
2018-12-07T11:02:17.184Z,1001.84
2018-12-07T11:03:17.193Z,1001.85
2018-12-07T11:04:17.405Z,1001.78
2018-12-07T11:05:17.215Z,1001.78
2018-12-07T11:06:17.205Z,1001.76
2018-12-07T11:07:17.221Z,1001.78
2018-12-07T11:08:17.260Z,1001.74
2018-12-07T11:09:17.346Z,1001.73
2018-12-07T11:10:17.297Z,1001.68
2018-12-07T11:11:17.273Z,1001.69
2018-12-07T11:12:17.333Z,1001.69
2018-12-07T11:13:17.313Z,1001.66
2018-12-07T11:14:17.319Z,1001.65
2018-12-07T11:15:17.344Z,1001.61
2018-12-07T11:16:17.387Z,1001.61
2018-12-07T11:17:17.325Z,1001.61
2018-12-07T11:18:17.334Z,1001.60
2018-12-07T11:19:17.322Z,1001.53
2018-12-07T11:20:17.348Z,1001.54
2018-12-07T11:21:17.338Z,1001.53
2018-12-07T11:22:17.446Z,1001.54
2018-12-07T11:23:17.451Z,1001.49
2018-12-07T11:24:17.470Z,1001.50
2018-12-07T11:25:17.398Z,1001.47
2018-12-07T11:26:17.559Z,1001.46
2018-12-07T11:27:17.482Z,1001.42
2018-12-07T11:28:17.470Z,1001.42
2018-12-07T11:29:17.554Z,1001.41
2018-12-07T11:30:17.435Z,1001.39
2018-12-07T11:31:17.521Z,1001.35
2018-12-07T11:32:17.484Z,1001.33
2018-12-07T11:33:17.440Z,1001.33
2018-12-07T11:34:17.566Z,1001.31
2018-12-07T11:35:17.667Z,1001.28
2018-12-07T11:36:17.517Z,1001.22
2018-12-07T11:37:17.587Z,1001.23
2018-12-07T11:38:17.571Z,1001.20
2018-12-07T11:39:17.578Z,1001.22
2018-12-07T11:40:17.535Z,1001.22
2018-12-07T11:41:17.509Z,1001.21
2018-12-07T11:42:17.569Z,1001.19
2018-12-07T11:43:17.566Z,1001.17
2018-12-07T11:44:17.583Z,1001.13
2018-12-07T11:45:17.580Z,1001.10
2018-12-07T11:46:17.662Z,1001.13
2018-12-07T11:47:17.557Z,1001.09
2018-12-07T11:48:17.597Z,1001.10
2018-12-07T11:49:17.579Z,1001.06
2018-12-07T11:50:17.570Z,1001.06
2018-12-07T11:51:18.153Z,1001.05
2018-12-07T11:52:17.648Z,1001.02
2018-12-07T11:53:17.707Z,1001.02
2018-12-07T11:54:17.610Z,1001.03
2018-12-07T11:55:18.683Z,1001.00
2018-12-07T11:56:17.749Z,1000.93
2018-12-07T11:57:17.826Z,1000.95
2018-12-07T11:58:17.672Z,1000.92
2018-12-07T11:59:17.664Z,1000.93
2018-12-07T12:00:17.771Z,1000.92
2018-12-07T12:01:17.686Z,1000.91
2018-12-07T12:02:17.699Z,1000.87
2018-12-07T12:03:17.772Z,1000.87
2018-12-07T12:04:17.784Z,1000.82
2018-12-07T12:05:17.732Z,1000.76
2018-12-07T12:06:17.738Z,1000.81
2018-12-07T12:07:17.749Z,1000.83
2018-12-07T12:08:17.959Z,1000.81
2018-12-07T12:09:17.755Z,1000.74
2018-12-07T12:10:17.794Z,1000.74
2018-12-07T12:11:17.772Z,1000.74
2018-12-07T12:12:17.778Z,1000.73
2018-12-07T12:13:17.782Z,1000.72
2018-12-07T12:14:17.823Z,1000.69
2018-12-07T12:15:17.793Z,1000.70
2018-12-07T12:16:17.803Z,1000.69
2018-12-07T12:17:17.945Z,1000.69
2018-12-07T12:18:17.828Z,1000.63
2018-12-07T12:19:17.969Z,1000.62
2018-12-07T12:20:17.936Z,1000.65
2018-12-07T12:21:17.846Z,1000.60
2018-12-07T12:22:17.858Z,1000.58
2018-12-07T12:23:17.875Z,1000.59
2018-12-07T12:24:17.888Z,1000.59
2018-12-07T12:25:17.999Z,1000.59
2018-12-07T12:26:18.016Z,1000.58
2018-12-07T12:27:17.920Z,1000.55
2018-12-07T12:28:17.916Z,1000.52
2018-12-07T12:29:17.936Z,1000.50
2018-12-07T12:30:18.014Z,1000.55
2018-12-07T12:31:17.951Z,1000.45
2018-12-07T12:32:17.960Z,1000.46
2018-12-07T12:33:18.026Z,1000.47
2018-12-07T12:34:18.018Z,1000.45
2018-12-07T12:35:17.982Z,1000.47
2018-12-07T12:36:18.126Z,1000.43
2018-12-07T12:37:17.978Z,1000.39
2018-12-07T12:38:17.985Z,1000.39
2018-12-07T12:39:17.991Z,1000.38
2018-12-07T12:40:18.041Z,1000.35
2018-12-07T12:41:18.160Z,1000.37
2018-12-07T12:42:18.048Z,1000.30
2018-12-07T12:43:18.047Z,1000.26
2018-12-07T12:44:18.189Z,1000.26
2018-12-07T12:45:18.041Z,1000.24
2018-12-07T12:46:18.049Z,1000.21
2018-12-07T12:47:18.274Z,1000.21
2018-12-07T12:48:18.167Z,1000.21
2018-12-07T12:49:18.076Z,1000.19
2018-12-07T12:50:18.076Z,1000.25
2018-12-07T12:51:18.141Z,1000.21
2018-12-07T12:52:18.175Z,1000.20
2018-12-07T12:53:18.210Z,1000.19
2018-12-07T12:54:18.108Z,1000.18
2018-12-07T12:55:18.138Z,1000.14
2018-12-07T12:56:18.150Z,1000.15
2018-12-07T12:57:18.151Z,1000.12
2018-12-07T12:58:18.173Z,1000.14
2018-12-07T12:59:18.314Z,1000.09
2018-12-07T13:00:18.199Z,1000.08
2018-12-07T13:01:18.199Z,1000.06
2018-12-07T13:02:18.211Z,1000.02
2018-12-07T13:03:18.275Z,1000.01
2018-12-07T13:04:18.205Z,999.95
2018-12-07T13:05:18.199Z,999.95
2018-12-07T13:06:18.234Z,999.97
2018-12-07T13:07:18.252Z,999.91
2018-12-07T13:08:18.275Z,999.96
2018-12-07T13:09:18.275Z,999.92
2018-12-07T13:10:18.281Z,999.89
2018-12-07T13:11:18.407Z,999.86
2018-12-07T13:12:18.254Z,999.87
2018-12-07T13:13:18.284Z,999.84
2018-12-07T13:14:18.433Z,999.83
2018-12-07T13:15:18.352Z,999.80
2018-12-07T13:16:18.307Z,999.78
2018-12-07T13:17:18.311Z,999.77
2018-12-07T13:18:18.351Z,999.75
2018-12-07T13:19:18.656Z,999.76
2018-12-07T13:20:18.353Z,999.75
2018-12-07T13:21:18.353Z,999.68
2018-12-07T13:22:18.394Z,999.64
2018-12-07T13:23:18.530Z,999.65
2018-12-07T13:24:18.412Z,999.58
2018-12-07T13:25:18.409Z,999.59
2018-12-07T13:26:18.409Z,999.57
2018-12-07T13:27:18.534Z,999.55
2018-12-07T13:28:18.397Z,999.55
2018-12-07T13:29:18.387Z,999.53
2018-12-07T13:30:18.690Z,999.47
2018-12-07T13:31:19.131Z,999.51
2018-12-07T13:32:18.487Z,999.45
2018-12-07T13:33:18.437Z,999.42
2018-12-07T13:34:18.460Z,999.42
2018-12-07T13:35:18.450Z,999.43
2018-12-07T13:36:18.483Z,999.36
2018-12-07T13:37:18.475Z,999.35
2018-12-07T13:38:18.509Z,999.28
2018-12-07T13:39:18.478Z,999.22
2018-12-07T13:40:18.710Z,999.23
2018-12-07T13:41:18.649Z,999.21
2018-12-07T13:42:18.627Z,999.19
2018-12-07T13:43:18.549Z,999.20
2018-12-07T13:44:18.835Z,999.20
2018-12-07T13:45:18.790Z,999.18
2018-12-07T13:46:18.707Z,999.10
2018-12-07T13:47:18.801Z,999.12
2018-12-07T13:48:18.869Z,999.14
2018-12-07T13:49:18.827Z,999.11
2018-12-07T13:50:18.712Z,999.04
2018-12-07T13:51:18.672Z,999.10
2018-12-07T13:52:18.664Z,999.06
2018-12-07T13:53:18.694Z,999.04
2018-12-07T13:54:18.850Z,999.04
2018-12-07T13:55:18.806Z,999.03
2018-12-07T13:56:18.877Z,999.03
2018-12-07T13:57:18.728Z,999.00
2018-12-07T13:58:18.993Z,998.98
2018-12-07T13:59:18.866Z,998.96
2018-12-07T14:00:18.928Z,998.90
2018-12-07T14:01:18.819Z,998.87
2018-12-07T14:02:19.720Z,998.84
2018-12-07T14:03:18.775Z,998.85
2018-12-07T14:04:18.787Z,998.79
2018-12-07T14:05:18.865Z,998.82
2018-12-07T14:06:18.779Z,998.78
2018-12-07T14:07:18.886Z,998.74
2018-12-07T14:08:18.852Z,998.72
2018-12-07T14:09:19.153Z,998.68
2018-12-07T14:10:18.841Z,998.69
2018-12-07T14:11:18.750Z,998.67
2018-12-07T14:12:18.801Z,998.69
2018-12-07T14:13:18.857Z,998.68
2018-12-07T14:14:18.917Z,998.64
2018-12-07T14:15:19.195Z,998.67
2018-12-07T14:16:19.035Z,998.65
2018-12-07T14:17:18.936Z,998.61
2018-12-07T14:18:18.855Z,998.63
2018-12-07T14:19:18.891Z,998.60
2018-12-07T14:20:18.874Z,998.62
2018-12-07T14:21:19.118Z,998.59
2018-12-07T14:22:18.953Z,998.54
2018-12-07T14:23:18.986Z,998.54
2018-12-07T14:24:18.859Z,998.52
2018-12-07T14:25:18.946Z,998.52
2018-12-07T14:26:18.989Z,998.48
2018-12-07T14:27:19.067Z,998.45
2018-12-07T14:28:18.935Z,998.46
2018-12-07T14:29:19.049Z,998.45
2018-12-07T14:30:18.893Z,998.45
2018-12-07T14:31:19.306Z,998.43
2018-12-07T14:32:19.014Z,998.41
2018-12-07T14:33:19.523Z,998.41
2018-12-07T14:34:19.215Z,998.42
2018-12-07T14:35:18.969Z,998.38
2018-12-07T14:36:19.017Z,998.39
2018-12-07T14:37:19.011Z,998.37
2018-12-07T14:38:19.182Z,998.36
2018-12-07T14:39:19.249Z,998.34
2018-12-07T14:40:19.085Z,998.31
2018-12-07T14:41:19.105Z,998.36
2018-12-07T14:42:19.090Z,998.33
2018-12-07T14:43:19.161Z,998.30
2018-12-07T14:44:19.164Z,998.27
2018-12-07T14:45:19.031Z,998.25
2018-12-07T14:46:19.080Z,998.27
2018-12-07T14:47:19.193Z,998.28
2018-12-07T14:48:19.945Z,998.22
2018-12-07T14:49:19.108Z,998.19
2018-12-07T14:50:19.126Z,998.20
2018-12-07T14:51:19.307Z,998.18
2018-12-07T14:52:19.177Z,998.17
2018-12-07T14:53:19.143Z,998.11
2018-12-07T14:54:19.206Z,998.12
2018-12-07T14:55:19.935Z,998.12
2018-12-07T14:56:20.882Z,998.04
2018-12-07T14:57:19.318Z,998.05
2018-12-07T14:58:19.121Z,998.03
2018-12-07T14:59:20.083Z,998.04
2018-12-07T15:00:19.265Z,998.00
2018-12-07T15:01:19.329Z,998.01
2018-12-07T15:02:19.211Z,998.00
2018-12-07T15:03:19.269Z,997.97
2018-12-07T15:04:19.297Z,997.96
2018-12-07T15:05:19.328Z,998.00
2018-12-07T15:06:19.372Z,997.99
2018-12-07T15:07:19.220Z,997.98
2018-12-07T15:08:19.417Z,997.96
2018-12-07T15:09:19.200Z,997.97
2018-12-07T15:10:19.237Z,997.96
2018-12-07T15:11:19.762Z,997.94
2018-12-07T15:12:19.227Z,997.92
2018-12-07T15:13:19.227Z,997.91
2018-12-07T15:14:19.284Z,997.91
2018-12-07T15:15:19.333Z,997.92
2018-12-07T15:16:19.317Z,997.84
2018-12-07T15:17:19.372Z,997.86
2018-12-07T15:18:19.657Z,997.84
2018-12-07T15:19:19.394Z,997.84
2018-12-07T15:20:19.389Z,997.79
2018-12-07T15:21:19.332Z,997.81
2018-12-07T15:22:19.660Z,997.80
2018-12-07T15:23:19.542Z,997.77
2018-12-07T15:24:19.363Z,997.75
2018-12-07T15:25:19.616Z,997.72
2018-12-07T15:26:20.221Z,997.70
2018-12-07T15:27:19.477Z,997.70
2018-12-07T15:28:19.628Z,997.65
2018-12-07T15:29:19.524Z,997.60
2018-12-07T15:30:19.605Z,997.57
2018-12-07T15:31:20.268Z,997.50
2018-12-07T15:32:19.785Z,997.51
2018-12-07T15:33:20.021Z,997.46
2018-12-07T15:34:19.772Z,997.50
2018-12-07T15:35:19.447Z,997.49
2018-12-07T15:36:19.606Z,997.50
2018-12-07T15:37:19.490Z,997.45
2018-12-07T15:38:19.429Z,997.48
2018-12-07T15:39:19.630Z,997.45
2018-12-07T15:40:19.580Z,997.39
2018-12-07T15:41:20.551Z,997.43
2018-12-07T15:42:19.600Z,997.36
2018-12-07T15:43:19.494Z,997.34
2018-12-07T15:44:19.516Z,997.37
2018-12-07T15:45:19.605Z,997.33
2018-12-07T15:46:19.631Z,997.35
2018-12-07T15:47:19.545Z,997.30
2018-12-07T15:48:19.589Z,997.29
2018-12-07T15:49:19.514Z,997.16
2018-12-07T15:50:25.050Z,997.18
2018-12-07T15:51:19.722Z,997.14
2018-12-07T15:52:19.614Z,997.07
2018-12-07T15:53:19.548Z,997.06
2018-12-07T15:54:19.655Z,997.06
2018-12-07T15:55:19.656Z,997.03
2018-12-07T15:56:19.601Z,996.97
2018-12-07T15:57:19.610Z,997.01
2018-12-07T15:58:19.714Z,996.96
2018-12-07T15:59:19.585Z,996.92
2018-12-07T16:00:19.685Z,996.83
2018-12-07T16:01:19.682Z,996.79
2018-12-07T16:02:19.687Z,996.80
2018-12-07T16:03:19.636Z,996.74
2018-12-07T16:04:19.785Z,996.78
2018-12-07T16:05:19.639Z,996.74
2018-12-07T16:06:19.662Z,996.72
2018-12-07T16:07:19.721Z,996.70
2018-12-07T16:08:24.969Z,996.66
2018-12-07T16:09:19.918Z,996.70
2018-12-07T16:10:19.792Z,996.67
2018-12-07T16:11:19.779Z,996.67
2018-12-07T16:12:19.746Z,996.60
2018-12-07T16:13:19.780Z,996.50
2018-12-07T16:14:19.914Z,996.52
2018-12-07T16:15:19.724Z,996.53
2018-12-07T16:16:19.807Z,996.52
2018-12-07T16:17:19.964Z,996.51
2018-12-07T16:18:19.876Z,996.53
2018-12-07T16:19:19.958Z,996.47
2018-12-07T16:20:19.877Z,996.41
2018-12-07T16:21:19.889Z,996.42
2018-12-07T16:22:19.987Z,996.40
2018-12-07T16:23:20.093Z,996.42
2018-12-07T16:24:20.089Z,996.35
2018-12-07T16:25:19.845Z,996.33
2018-12-07T16:26:19.982Z,996.35
2018-12-07T16:27:19.944Z,996.28
2018-12-07T16:28:20.028Z,996.31
2018-12-07T16:29:20.109Z,996.23
2018-12-07T16:30:19.992Z,996.21
2018-12-07T16:31:19.835Z,996.14
2018-12-07T16:32:19.894Z,996.15
2018-12-07T16:33:20.053Z,996.15
2018-12-07T16:34:19.896Z,996.09
2018-12-07T16:35:20.029Z,996.13
2018-12-07T16:36:19.954Z,996.13
2018-12-07T16:37:20.015Z,996.15
2018-12-07T16:38:20.045Z,996.09
2018-12-07T16:39:19.933Z,996.04
2018-12-07T16:40:19.984Z,996.01
2018-12-07T16:41:20.201Z,995.99
2018-12-07T16:42:19.957Z,995.93
2018-12-07T16:43:19.968Z,995.95
2018-12-07T16:44:20.031Z,995.93
2018-12-07T16:45:20.208Z,995.92
2018-12-07T16:46:19.998Z,995.95
2018-12-07T16:47:20.078Z,995.97
2018-12-07T16:48:19.986Z,995.93
2018-12-07T16:49:20.019Z,995.90
2018-12-07T16:50:19.971Z,995.88
2018-12-07T16:51:20.140Z,995.85
2018-12-07T16:52:20.022Z,995.83
2018-12-07T16:53:20.084Z,995.79
2018-12-07T16:54:20.100Z,995.68
2018-12-07T16:55:20.071Z,995.62
2018-12-07T16:56:20.052Z,995.57
2018-12-07T16:57:20.113Z,995.57
2018-12-07T16:58:20.074Z,995.52
2018-12-07T16:59:20.128Z,995.51
2018-12-07T17:00:20.280Z,995.53
2018-12-07T17:01:20.149Z,995.50
2018-12-07T17:02:20.152Z,995.46
2018-12-07T17:03:20.151Z,995.45
2018-12-07T17:04:20.157Z,995.41
2018-12-07T17:05:20.223Z,995.43
2018-12-07T17:06:20.468Z,995.36
2018-12-07T17:07:20.125Z,995.36
2018-12-07T17:08:20.374Z,995.34
2018-12-07T17:09:20.139Z,995.33
2018-12-07T17:10:20.358Z,995.32
2018-12-07T17:11:20.328Z,995.29
2018-12-07T17:12:20.337Z,995.29
2018-12-07T17:13:20.260Z,995.29
2018-12-07T17:14:20.209Z,995.34
2018-12-07T17:15:20.176Z,995.29
2018-12-07T17:16:20.187Z,995.29
2018-12-07T17:17:20.393Z,995.33
2018-12-07T17:18:20.312Z,995.35
2018-12-07T17:19:20.255Z,995.34
2018-12-07T17:20:20.227Z,995.37
2018-12-07T17:21:20.205Z,995.33
2018-12-07T17:22:20.237Z,995.37
2018-12-07T17:23:20.317Z,995.33
2018-12-07T17:24:20.346Z,995.33
2018-12-07T17:25:20.296Z,995.32
2018-12-07T17:26:20.401Z,995.34
2018-12-07T17:27:20.524Z,995.30
2018-12-07T17:28:20.461Z,995.34
2018-12-07T17:29:20.617Z,995.29
2018-12-07T17:30:20.310Z,995.28
2018-12-07T17:31:20.357Z,995.24
2018-12-07T17:32:20.483Z,995.26
2018-12-07T17:33:20.305Z,995.24
2018-12-07T17:34:20.538Z,995.23
2018-12-07T17:35:20.434Z,995.24
2018-12-07T17:36:20.363Z,995.21
2018-12-07T17:37:20.505Z,995.24
2018-12-07T17:38:20.438Z,995.20
2018-12-07T17:39:20.641Z,995.22
2018-12-07T17:40:20.558Z,995.21
2018-12-07T17:41:20.584Z,995.22
2018-12-07T17:42:20.431Z,995.21
2018-12-07T17:43:20.737Z,995.18
2018-12-07T17:44:20.385Z,995.12
2018-12-07T17:45:20.520Z,995.13
2018-12-07T17:46:20.627Z,995.08
2018-12-07T17:47:20.499Z,995.10
2018-12-07T17:48:20.428Z,995.10
2018-12-07T17:49:20.501Z,995.08
2018-12-07T17:50:22.312Z,995.06
2018-12-07T17:51:20.459Z,995.08
2018-12-07T17:52:20.735Z,995.02
2018-12-07T17:53:20.611Z,995.02
2018-12-07T17:54:20.574Z,994.98
2018-12-07T17:55:20.793Z,994.97
2018-12-07T17:56:20.720Z,994.94
2018-12-07T17:57:20.709Z,994.91
2018-12-07T17:58:20.538Z,994.92
2018-12-07T17:59:20.560Z,994.94
2018-12-07T18:00:20.587Z,994.90
2018-12-07T18:01:20.547Z,994.86
2018-12-07T18:02:20.554Z,994.87
2018-12-07T18:03:20.558Z,994.86
2018-12-07T18:04:20.610Z,994.82
2018-12-07T18:05:20.767Z,994.79
2018-12-07T18:06:20.759Z,994.85
2018-12-07T18:07:20.845Z,994.80
2018-12-07T18:08:20.652Z,994.77
2018-12-07T18:09:20.589Z,994.74
2018-12-07T18:10:20.586Z,994.74
2018-12-07T18:11:20.851Z,994.72
2018-12-07T18:12:20.610Z,994.67
2018-12-07T18:13:20.795Z,994.68
2018-12-07T18:14:20.702Z,994.65
2018-12-07T18:15:20.661Z,994.64
2018-12-07T18:16:20.891Z,994.61
2018-12-07T18:17:20.643Z,994.57
2018-12-07T18:18:20.741Z,994.55
2018-12-07T18:19:20.835Z,994.55
2018-12-07T18:20:20.718Z,994.53
2018-12-07T18:21:20.739Z,994.48
2018-12-07T18:22:20.685Z,994.44
2018-12-07T18:23:20.705Z,994.48
2018-12-07T18:24:20.781Z,994.46
2018-12-07T18:25:20.808Z,994.38
2018-12-07T18:26:20.981Z,994.40
2018-12-07T18:27:20.971Z,994.41
2018-12-07T18:28:20.735Z,994.40
2018-12-07T18:29:20.997Z,994.39
2018-12-07T18:30:20.777Z,994.35
2018-12-07T18:31:20.896Z,994.28
2018-12-07T18:32:20.996Z,994.32
2018-12-07T18:33:20.757Z,994.31
2018-12-07T18:34:20.937Z,994.29
2018-12-07T18:35:20.831Z,994.30
2018-12-07T18:36:20.961Z,994.27
2018-12-07T18:37:20.830Z,994.29
2018-12-07T18:38:20.818Z,994.30
2018-12-07T18:39:20.815Z,994.27
2018-12-07T18:40:20.836Z,994.31
2018-12-07T18:41:20.939Z,994.22
2018-12-07T18:42:20.836Z,994.26
2018-12-07T18:43:21.106Z,994.27
2018-12-07T18:44:21.105Z,994.28
2018-12-07T18:45:20.993Z,994.20
2018-12-07T18:46:20.979Z,994.19
2018-12-07T19:01:38.189Z,993.95
2018-12-07T19:02:38.062Z,993.95
2018-12-07T19:03:38.141Z,993.89
2018-12-07T19:04:38.056Z,993.89
2018-12-07T19:05:38.082Z,993.89
2018-12-07T19:06:38.000Z,993.91
2018-12-07T19:07:38.003Z,993.89
2018-12-07T19:08:38.104Z,993.89
2018-12-07T19:09:38.201Z,993.97
2018-12-07T19:10:38.153Z,993.94
2018-12-07T19:11:38.008Z,993.92
2018-12-07T19:12:38.199Z,993.88
2018-12-07T19:13:38.299Z,993.87
2018-12-07T19:14:38.048Z,993.85
2018-12-07T19:15:38.262Z,993.87
2018-12-07T19:16:38.176Z,993.85
2018-12-07T19:17:38.025Z,993.85
2018-12-07T19:18:38.764Z,993.81
2018-12-07T19:19:38.216Z,993.84
2018-12-07T19:20:38.051Z,993.82
2018-12-07T19:21:38.766Z,993.85
2018-12-07T19:22:38.162Z,993.85
2018-12-07T19:23:38.089Z,993.87
2018-12-07T19:24:38.736Z,993.81
2018-12-07T19:25:38.366Z,993.85
2018-12-07T19:26:38.472Z,993.90
2018-12-07T19:27:38.280Z,993.88
2018-12-07T19:28:38.176Z,993.85
2018-12-07T19:29:38.344Z,993.88